createdAt,value
2022-12-05T00:01:41.008Z,3.10
2022-12-05T00:04:11.572Z,3.20
2022-12-05T00:06:42.390Z,3.10
2022-12-05T00:09:11.970Z,3.00
2022-12-05T00:11:42.732Z,3.00
2022-12-05T00:14:12.168Z,3.00
2022-12-05T00:16:41.844Z,3.00
2022-12-05T00:19:12.052Z,3.00
2022-12-05T00:21:42.104Z,2.90
2022-12-05T00:24:14.114Z,3.00
2022-12-05T00:26:42.190Z,3.00
2022-12-05T00:29:10.311Z,3.10
2022-12-05T00:31:39.082Z,3.10
2022-12-05T00:34:07.280Z,3.10
2022-12-05T00:36:37.326Z,3.20
2022-12-05T00:39:09.483Z,3.20
2022-12-05T00:41:37.526Z,3.20
2022-12-05T00:44:06.082Z,3.20
2022-12-05T00:46:35.338Z,3.20
2022-12-05T00:49:05.246Z,3.20
2022-12-05T00:51:35.547Z,3.20
2022-12-05T00:54:05.265Z,3.20
2022-12-05T00:56:35.289Z,3.10
2022-12-05T00:59:04.198Z,3.10
2022-12-05T01:01:34.004Z,3.10
2022-12-05T01:04:03.712Z,3.10
2022-12-05T01:06:31.815Z,3.20
2022-12-05T01:08:59.881Z,3.20
2022-12-05T01:11:28.964Z,3.20
2022-12-05T01:13:58.673Z,3.20
2022-12-05T01:16:29.549Z,3.10
2022-12-05T01:18:59.711Z,3.20
2022-12-05T01:21:28.290Z,3.10
2022-12-05T01:23:56.610Z,3.10
2022-12-05T01:26:25.732Z,3.10
2022-12-05T01:28:53.924Z,3.10
2022-12-05T01:31:26.383Z,3.10
2022-12-05T01:33:56.658Z,3.10
2022-12-05T01:36:26.622Z,3.10
2022-12-05T01:38:55.401Z,3.10
2022-12-05T01:41:25.656Z,3.10
2022-12-05T01:43:55.674Z,3.10
2022-12-05T01:46:25.988Z,3.10
2022-12-05T01:48:58.725Z,3.10
2022-12-05T01:51:27.112Z,3.20
2022-12-05T01:53:55.201Z,3.20
2022-12-05T01:56:23.441Z,3.10
2022-12-05T01:58:52.148Z,3.10
2022-12-05T02:01:21.266Z,3.10
2022-12-05T02:03:53.840Z,3.10
2022-12-05T02:06:23.075Z,3.10
2022-12-05T02:08:52.315Z,3.10
2022-12-05T02:11:21.267Z,3.20
2022-12-05T02:14:10.708Z,3.20
2022-12-05T02:16:48.699Z,3.20
2022-12-05T02:19:48.989Z,3.20
2022-12-05T02:22:41.600Z,3.20
2022-12-05T02:25:21.881Z,3.20
2022-12-05T02:28:22.484Z,3.20
2022-12-05T02:30:56.871Z,3.20
2022-12-05T02:33:34.731Z,3.20
2022-12-05T02:36:08.551Z,3.20
2022-12-05T02:38:42.293Z,3.10
2022-12-05T02:41:18.149Z,3.20
2022-12-05T02:43:52.427Z,3.20
2022-12-05T02:46:25.041Z,3.10
2022-12-05T02:48:57.135Z,3.10
2022-12-05T02:51:28.406Z,3.10
2022-12-05T02:54:00.835Z,3.10
2022-12-05T02:56:30.804Z,3.10
2022-12-05T02:58:58.846Z,3.00
2022-12-05T03:01:31.688Z,3.10
2022-12-05T03:04:02.717Z,3.10
2022-12-05T03:06:35.133Z,3.10
2022-12-05T03:09:06.566Z,3.10
2022-12-05T03:11:39.775Z,3.10
2022-12-05T03:14:12.943Z,3.10
2022-12-05T03:16:47.642Z,3.20
2022-12-05T03:19:19.669Z,3.20
2022-12-05T03:21:54.011Z,3.20
2022-12-05T03:24:22.420Z,3.10
2022-12-05T03:27:00.376Z,3.10
2022-12-05T03:29:32.646Z,3.20
2022-12-05T03:32:08.947Z,3.20
2022-12-05T03:34:47.937Z,3.20
2022-12-05T03:37:22.772Z,3.10
2022-12-05T03:40:01.706Z,3.10
2022-12-05T03:42:34.921Z,3.20
2022-12-05T03:45:10.627Z,3.20
2022-12-05T03:47:48.629Z,3.20
2022-12-05T03:50:23.847Z,3.20
2022-12-05T03:53:19.172Z,3.20
2022-12-05T03:55:47.081Z,3.20
2022-12-05T03:58:22.083Z,3.10
2022-12-05T04:00:53.909Z,3.10
2022-12-05T04:03:39.083Z,3.20
2022-12-05T04:06:14.129Z,3.20
2022-12-05T04:08:46.722Z,3.20
2022-12-05T04:11:17.766Z,3.20
2022-12-05T04:13:51.550Z,3.20
2022-12-05T04:16:41.574Z,3.20
2022-12-05T04:19:18.258Z,3.20
2022-12-05T04:21:49.651Z,3.20
2022-12-05T04:24:40.156Z,3.20
2022-12-05T04:27:16.570Z,3.20
2022-12-05T04:29:52.408Z,3.20
2022-12-05T04:32:23.041Z,3.20
2022-12-05T04:34:59.923Z,3.20
2022-12-05T04:37:33.222Z,3.20
2022-12-05T04:40:06.038Z,3.20
2022-12-05T04:42:36.783Z,3.20
2022-12-05T04:45:09.162Z,3.10
2022-12-05T04:47:41.867Z,3.10
2022-12-05T04:50:13.331Z,3.20
2022-12-05T04:52:43.458Z,3.20
2022-12-05T04:55:14.970Z,3.20
2022-12-05T04:57:50.816Z,3.20
2022-12-05T05:00:19.495Z,3.20
2022-12-05T05:02:53.822Z,3.20
2022-12-05T05:05:24.481Z,3.20
2022-12-05T05:07:55.706Z,3.20
2022-12-05T05:10:32.138Z,3.10
2022-12-05T05:13:00.154Z,3.10
2022-12-05T05:15:28.287Z,3.10
2022-12-05T05:17:56.325Z,3.10
2022-12-05T05:20:26.983Z,3.00
2022-12-05T05:22:56.515Z,3.00
2022-12-05T05:25:25.128Z,3.00
2022-12-05T05:27:54.613Z,3.00
2022-12-05T05:30:24.557Z,3.00
2022-12-05T05:32:52.592Z,3.00
2022-12-05T05:35:21.608Z,3.00
2022-12-05T05:37:51.042Z,3.00
2022-12-05T05:40:19.508Z,3.00
2022-12-05T05:42:49.164Z,3.00
2022-12-05T05:45:17.846Z,3.00
2022-12-05T05:47:45.919Z,3.00
2022-12-05T05:50:20.949Z,3.10
2022-12-05T05:52:50.799Z,3.10
2022-12-05T05:55:19.252Z,3.10
2022-12-05T05:57:47.448Z,3.10
2022-12-05T06:00:16.837Z,3.10
2022-12-05T06:02:44.972Z,3.10
2022-12-05T06:05:13.098Z,3.00
2022-12-05T06:07:41.153Z,3.10
2022-12-05T06:10:11.224Z,3.00
2022-12-05T06:12:39.326Z,3.00
2022-12-05T06:15:08.924Z,3.00
2022-12-05T06:17:37.216Z,3.00
2022-12-05T06:20:05.876Z,3.00
2022-12-05T06:22:34.242Z,3.00
2022-12-05T06:25:02.285Z,3.10
2022-12-05T06:27:32.628Z,3.00
2022-12-05T06:30:01.076Z,3.00
2022-12-05T06:32:30.332Z,3.00
2022-12-05T06:34:58.354Z,3.00
2022-12-05T06:37:26.370Z,3.00
2022-12-05T06:39:54.383Z,3.00
2022-12-05T06:42:23.048Z,3.00
2022-12-05T06:44:52.409Z,3.00
2022-12-05T06:47:20.449Z,3.00
2022-12-05T06:49:48.539Z,3.00
2022-12-05T06:52:16.592Z,3.00
2022-12-05T06:54:44.579Z,3.00
2022-12-05T06:57:12.618Z,3.00
2022-12-05T06:59:40.638Z,3.00
2022-12-05T07:02:11.520Z,3.10
2022-12-05T07:04:39.807Z,3.00
2022-12-05T07:07:08.022Z,3.00
2022-12-05T07:09:48.476Z,3.00
2022-12-05T07:12:19.305Z,3.00
2022-12-05T07:14:49.357Z,3.10
2022-12-05T07:17:19.753Z,3.10
2022-12-05T07:19:49.371Z,3.10
2022-12-05T07:22:17.577Z,3.20
2022-12-05T07:24:46.048Z,3.30
2022-12-05T07:27:15.191Z,3.30
2022-12-05T07:29:43.209Z,3.30
2022-12-05T07:32:11.401Z,3.30
2022-12-05T07:34:42.213Z,3.30
2022-12-05T07:37:10.369Z,3.20
2022-12-05T07:39:38.413Z,3.30
2022-12-05T07:42:06.517Z,3.30
2022-12-05T07:44:34.898Z,3.30
2022-12-05T07:47:03.004Z,3.20
2022-12-05T07:49:31.009Z,3.20
2022-12-05T07:52:00.430Z,3.20
2022-12-05T07:54:28.458Z,3.20
2022-12-05T07:56:56.557Z,3.20
2022-12-05T07:59:24.560Z,3.10
2022-12-05T08:01:52.718Z,3.10
2022-12-05T08:04:20.805Z,3.10
2022-12-05T08:06:48.817Z,3.10
2022-12-05T08:09:18.209Z,3.20
2022-12-05T08:11:52.214Z,3.20
2022-12-05T08:14:20.829Z,3.20
2022-12-05T08:16:48.946Z,3.20
2022-12-05T08:19:17.875Z,3.20
2022-12-05T08:21:45.988Z,3.20
2022-12-05T08:24:14.384Z,3.20
2022-12-05T08:26:43.804Z,3.30
2022-12-05T08:29:14.104Z,3.30
2022-12-05T08:31:47.144Z,3.40
2022-12-05T08:34:16.240Z,3.50
2022-12-05T08:36:44.964Z,3.50
2022-12-05T08:39:15.865Z,3.40
2022-12-05T08:41:46.646Z,3.40
2022-12-05T08:44:16.499Z,3.40
2022-12-05T08:46:46.220Z,3.40
2022-12-05T08:49:15.028Z,3.40
2022-12-05T08:51:43.841Z,3.60
2022-12-05T08:54:12.053Z,3.70
2022-12-05T08:56:40.307Z,3.70
2022-12-05T08:59:09.885Z,3.70
2022-12-05T09:01:39.363Z,3.80
2022-12-05T09:04:08.705Z,3.70
2022-12-05T09:06:39.192Z,3.70
2022-12-05T09:09:11.644Z,3.70
2022-12-05T09:11:46.140Z,3.70
2022-12-05T09:14:16.601Z,3.70
2022-12-05T09:16:46.837Z,3.80
2022-12-05T09:19:17.836Z,3.90
2022-12-05T09:21:46.204Z,3.90
2022-12-05T09:24:15.188Z,4.10
2022-12-05T09:26:43.899Z,4.10
2022-12-05T09:29:17.755Z,4.10
2022-12-05T09:31:48.803Z,4.10
2022-12-05T09:34:18.361Z,4.20
2022-12-05T09:36:49.691Z,4.10
2022-12-05T09:39:17.839Z,4.20
2022-12-05T09:42:27.198Z,4.10
2022-12-05T09:45:15.263Z,4.00
2022-12-05T09:47:58.645Z,4.00
2022-12-05T09:50:29.040Z,4.00
2022-12-05T09:53:11.562Z,4.00
2022-12-05T09:55:45.971Z,4.10
2022-12-05T09:58:29.919Z,4.10
2022-12-05T10:01:04.217Z,4.20
2022-12-05T10:03:42.365Z,4.30
2022-12-05T10:06:19.332Z,4.40
2022-12-05T10:09:10.137Z,4.30
2022-12-05T10:11:45.489Z,4.40
2022-12-05T10:14:21.280Z,4.40
2022-12-05T10:16:54.915Z,4.30
2022-12-05T10:19:28.997Z,4.30
2022-12-05T10:22:01.093Z,4.20
2022-12-05T10:24:33.383Z,4.10
2022-12-05T10:27:06.489Z,4.10
2022-12-05T10:29:39.302Z,4.20
2022-12-05T10:32:14.244Z,4.00
2022-12-05T10:34:45.473Z,4.00
2022-12-05T10:37:17.516Z,3.90
2022-12-05T10:39:46.379Z,3.80
2022-12-05T10:42:18.672Z,3.70
2022-12-05T10:44:47.130Z,3.70
2022-12-05T10:47:15.370Z,3.80
2022-12-05T10:49:45.342Z,3.70
2022-12-05T10:52:15.313Z,3.70
2022-12-05T10:54:48.553Z,3.70
2022-12-05T10:57:25.225Z,3.60
2022-12-05T10:59:53.531Z,3.60
2022-12-05T11:02:26.967Z,3.70
2022-12-05T11:04:58.496Z,3.70
2022-12-05T11:07:31.914Z,3.70
2022-12-05T11:10:01.587Z,3.60
2022-12-05T11:12:37.371Z,3.60
2022-12-05T11:15:08.414Z,3.60
2022-12-05T11:17:38.454Z,3.60
2022-12-05T11:20:36.305Z,3.70
2022-12-05T11:23:22.073Z,3.60
2022-12-05T11:25:50.370Z,3.60
2022-12-05T11:28:36.442Z,3.60
2022-12-05T11:31:06.550Z,3.60
2022-12-05T11:33:36.121Z,3.50
2022-12-05T11:36:14.516Z,3.60
2022-12-05T11:38:43.191Z,3.70
2022-12-05T11:41:36.410Z,3.70
2022-12-05T11:44:25.315Z,3.80
2022-12-05T11:47:06.479Z,3.80
2022-12-05T11:49:50.559Z,3.80
2022-12-05T11:52:29.764Z,3.80
2022-12-05T11:55:05.671Z,3.70
2022-12-05T11:57:52.766Z,3.70
2022-12-05T12:00:25.834Z,3.70
2022-12-05T12:03:16.750Z,3.60
2022-12-05T12:05:53.226Z,3.60
2022-12-05T12:08:27.562Z,3.60
2022-12-05T12:11:04.364Z,3.60
2022-12-05T12:13:44.404Z,3.50
2022-12-05T12:16:19.323Z,3.50
2022-12-05T12:19:01.279Z,3.60
2022-12-05T12:21:38.739Z,3.70
2022-12-05T12:24:22.441Z,3.80
2022-12-05T12:26:59.160Z,3.80
2022-12-05T12:29:46.055Z,3.70
2022-12-05T12:32:28.070Z,3.70
2022-12-05T12:35:14.952Z,3.70
2022-12-05T12:37:54.913Z,3.50
2022-12-05T12:40:30.925Z,3.70
2022-12-05T12:43:25.313Z,3.80
2022-12-05T12:46:15.398Z,3.80
2022-12-05T12:49:01.681Z,3.80
2022-12-05T12:51:33.484Z,3.80
2022-12-05T12:54:54.697Z,3.80
2022-12-05T12:57:26.967Z,3.80
2022-12-05T13:00:05.767Z,3.90
2022-12-05T13:02:38.782Z,3.90
2022-12-05T13:05:13.806Z,3.90
2022-12-05T13:07:47.730Z,4.00
2022-12-05T13:10:29.826Z,4.10
2022-12-05T13:13:00.680Z,4.00
2022-12-05T13:15:35.742Z,4.00
2022-12-05T13:18:05.966Z,4.00
2022-12-05T13:20:37.057Z,4.00
2022-12-05T13:23:08.492Z,3.90
2022-12-05T13:25:40.075Z,4.00
2022-12-05T13:28:26.057Z,4.00
2022-12-05T13:31:03.828Z,4.00
2022-12-05T13:33:36.661Z,4.00
2022-12-05T13:36:27.185Z,4.00
2022-12-05T13:39:22.063Z,4.00
2022-12-05T13:42:11.029Z,4.00
2022-12-05T13:44:43.505Z,4.10
2022-12-05T13:47:27.508Z,4.10
2022-12-05T13:50:02.405Z,4.10
2022-12-05T13:52:33.091Z,4.00
2022-12-05T13:55:10.851Z,4.20
2022-12-05T13:57:51.119Z,4.10
2022-12-05T14:00:32.740Z,4.00
2022-12-05T14:03:06.962Z,4.00
2022-12-05T14:05:54.285Z,4.00
2022-12-05T14:08:58.412Z,3.90
2022-12-05T14:11:26.516Z,4.00
2022-12-05T14:13:59.132Z,4.00
2022-12-05T14:16:53.237Z,3.90
2022-12-05T14:19:49.967Z,4.00
2022-12-05T14:22:35.091Z,4.00
2022-12-05T14:25:11.898Z,4.00
2022-12-05T14:27:50.384Z,4.00
2022-12-05T14:30:24.739Z,4.00
2022-12-05T14:32:55.487Z,3.90
2022-12-05T14:35:29.362Z,4.00
2022-12-05T14:38:00.063Z,4.00
2022-12-05T14:40:32.504Z,4.00
2022-12-05T14:43:03.113Z,4.00
2022-12-05T14:45:35.736Z,4.00
2022-12-05T14:48:07.510Z,4.00
2022-12-05T14:50:40.823Z,4.10
2022-12-05T14:53:37.583Z,4.00
2022-12-05T14:56:18.467Z,4.00
2022-12-05T14:58:55.845Z,4.00
2022-12-05T15:01:27.518Z,4.00
2022-12-05T15:04:20.737Z,4.00
2022-12-05T15:06:53.693Z,4.00
2022-12-05T15:09:51.944Z,4.00
2022-12-05T15:12:23.415Z,4.00
2022-12-05T15:14:58.511Z,4.00
2022-12-05T15:17:32.915Z,4.00
2022-12-05T15:20:06.534Z,4.00
2022-12-05T15:22:38.553Z,4.00
2022-12-05T15:25:31.604Z,4.00
2022-12-05T15:28:02.653Z,4.00
2022-12-05T15:30:33.414Z,3.90
2022-12-05T15:33:02.935Z,3.90
2022-12-05T15:35:35.051Z,3.90
2022-12-05T15:38:09.393Z,3.90
2022-12-05T15:40:40.736Z,3.90
2022-12-05T15:43:29.424Z,3.90
2022-12-05T15:46:20.776Z,3.80
2022-12-05T15:48:48.870Z,3.70
2022-12-05T15:51:19.021Z,3.80
2022-12-05T15:53:49.676Z,3.80
2022-12-05T15:56:22.471Z,3.90
2022-12-05T15:58:52.954Z,3.90
2022-12-05T16:01:23.258Z,3.90
2022-12-05T16:03:55.856Z,3.90
2022-12-05T16:06:30.676Z,3.90
2022-12-05T16:09:00.350Z,3.90
2022-12-05T16:11:28.823Z,3.90
2022-12-05T16:13:59.205Z,3.90
2022-12-05T16:16:30.713Z,3.90
2022-12-05T16:19:00.808Z,3.90
2022-12-05T16:21:38.957Z,3.90
2022-12-05T16:24:15.665Z,3.90
2022-12-05T16:26:44.220Z,3.90
2022-12-05T16:29:28.287Z,4.00
2022-12-05T16:31:58.696Z,4.00
2022-12-05T16:34:27.880Z,4.00
2022-12-05T16:36:58.435Z,3.90
2022-12-05T16:39:28.992Z,3.90
2022-12-05T16:41:57.356Z,3.90
2022-12-05T16:45:01.819Z,3.90
2022-12-05T16:47:59.637Z,3.90
2022-12-05T16:50:32.341Z,4.00
2022-12-05T16:53:21.784Z,4.00
2022-12-05T16:55:50.342Z,4.00
2022-12-05T16:58:24.301Z,4.00
2022-12-05T17:00:52.870Z,4.10
2022-12-05T17:03:36.657Z,4.10
2022-12-05T17:06:04.970Z,4.10
2022-12-05T17:08:34.395Z,4.10
2022-12-05T17:11:03.711Z,4.10
2022-12-05T17:13:32.552Z,4.10
2022-12-05T17:16:00.646Z,4.10
2022-12-05T17:18:31.887Z,4.20
2022-12-05T17:21:02.674Z,4.10
2022-12-05T17:23:30.725Z,4.10
2022-12-05T17:26:00.766Z,4.20
2022-12-05T17:28:28.810Z,4.20
2022-12-05T17:30:57.319Z,4.10
2022-12-05T17:33:25.394Z,4.10
2022-12-05T17:35:53.462Z,4.20
2022-12-05T17:38:22.087Z,4.20
2022-12-05T17:40:50.198Z,4.20
2022-12-05T17:43:24.779Z,4.20
2022-12-05T17:45:54.744Z,4.20
2022-12-05T17:48:23.089Z,4.20
2022-12-05T17:50:51.123Z,4.20
2022-12-05T17:53:21.090Z,4.20
2022-12-05T17:55:49.191Z,4.30
2022-12-05T17:58:19.079Z,4.20
2022-12-05T18:00:48.410Z,4.30
2022-12-05T18:03:18.037Z,4.20
2022-12-05T18:05:47.097Z,4.20
2022-12-05T18:08:16.635Z,4.20
2022-12-05T18:10:46.780Z,4.20
2022-12-05T18:13:15.877Z,4.20
2022-12-05T18:15:48.204Z,4.20
2022-12-05T18:18:18.485Z,4.20
2022-12-05T18:20:46.927Z,4.20
2022-12-05T18:23:14.975Z,4.20
2022-12-05T18:25:43.034Z,4.20
2022-12-05T18:28:13.961Z,4.20
2022-12-05T18:30:43.990Z,4.30
2022-12-05T18:33:13.414Z,4.20
2022-12-05T18:35:42.560Z,4.20
2022-12-05T18:38:11.959Z,4.20
2022-12-05T18:40:39.991Z,4.20
2022-12-05T18:43:08.039Z,4.20
2022-12-05T18:45:36.100Z,4.20
2022-12-05T18:48:23.308Z,4.30
2022-12-05T18:50:53.684Z,4.30
2022-12-05T18:53:21.889Z,4.20
2022-12-05T18:56:21.436Z,4.20
2022-12-05T18:58:38.835Z,4.20
2022-12-05T19:01:09.216Z,4.20
2022-12-05T19:03:38.207Z,4.20
2022-12-05T19:06:14.436Z,4.20
2022-12-05T19:08:44.398Z,4.20
2022-12-05T19:11:13.742Z,4.20
2022-12-05T19:13:43.151Z,4.20
2022-12-05T19:16:16.852Z,4.20
2022-12-05T19:18:45.433Z,4.30
2022-12-05T19:21:15.071Z,4.20
2022-12-05T19:23:43.075Z,4.30
2022-12-05T19:26:11.270Z,4.30
2022-12-05T19:28:39.612Z,4.30
2022-12-05T19:31:09.867Z,4.30
2022-12-05T19:33:40.269Z,4.30
2022-12-05T19:36:11.564Z,4.30
2022-12-05T19:38:42.545Z,4.30
2022-12-05T19:41:12.005Z,4.30
2022-12-05T19:43:40.471Z,4.30
2022-12-05T19:46:11.575Z,4.30
2022-12-05T19:48:40.221Z,4.30
2022-12-05T19:51:08.395Z,4.30
2022-12-05T19:53:38.352Z,4.20
2022-12-05T19:56:15.650Z,4.20
2022-12-05T19:58:44.227Z,4.20
2022-12-05T20:01:14.377Z,4.20
2022-12-05T20:03:43.126Z,4.20
2022-12-05T20:06:12.055Z,4.20
2022-12-05T20:08:40.874Z,4.20
2022-12-05T20:11:12.683Z,4.20
2022-12-05T20:13:48.991Z,4.20
2022-12-05T20:16:18.874Z,4.20
2022-12-05T20:18:47.644Z,4.10
2022-12-05T20:21:17.403Z,4.10
2022-12-05T20:23:45.442Z,4.10
2022-12-05T20:26:17.139Z,4.10
2022-12-05T20:28:45.369Z,4.20
2022-12-05T20:31:15.257Z,4.20
2022-12-05T20:33:44.223Z,4.20
2022-12-05T20:36:14.196Z,4.20
2022-12-05T20:38:43.061Z,4.20
2022-12-05T20:41:15.288Z,4.20
2022-12-05T20:43:45.287Z,4.20
2022-12-05T20:46:15.558Z,4.10
2022-12-05T20:48:43.920Z,4.10
2022-12-05T20:51:13.881Z,4.10
2022-12-05T20:53:43.272Z,4.10
2022-12-05T20:56:12.949Z,4.10
2022-12-05T20:58:41.896Z,4.10
2022-12-05T21:01:12.606Z,4.10
2022-12-05T21:03:42.790Z,4.10
2022-12-05T21:06:12.808Z,4.10
2022-12-05T21:08:41.435Z,4.10
2022-12-05T21:11:10.315Z,4.10
2022-12-05T21:13:38.984Z,4.20
2022-12-05T21:16:09.316Z,4.20
2022-12-05T21:18:38.942Z,4.20
2022-12-05T21:21:10.292Z,4.10
2022-12-05T21:23:38.362Z,4.00
2022-12-05T21:26:09.614Z,4.10
2022-12-05T21:28:38.013Z,4.00
2022-12-05T21:31:08.186Z,4.10
2022-12-05T21:33:36.575Z,4.10
2022-12-05T21:36:07.128Z,4.00
2022-12-05T21:38:35.860Z,4.00
2022-12-05T21:41:04.862Z,4.10
2022-12-05T21:43:34.344Z,4.10
2022-12-05T21:46:02.658Z,4.10
2022-12-05T21:48:30.869Z,4.10
2022-12-05T21:50:58.919Z,4.20
2022-12-05T21:53:28.423Z,4.20
2022-12-05T21:56:03.673Z,4.20
2022-12-05T21:58:31.998Z,4.10
2022-12-05T22:01:00.019Z,4.10
2022-12-05T22:03:28.057Z,4.10
2022-12-05T22:06:01.793Z,4.20
2022-12-05T22:08:32.451Z,4.10
2022-12-05T22:11:05.708Z,4.10
2022-12-05T22:13:33.911Z,4.10
2022-12-05T22:16:02.714Z,4.20
2022-12-05T22:18:31.346Z,4.20
2022-12-05T22:21:00.253Z,4.20
2022-12-05T22:23:28.695Z,4.20
2022-12-05T22:25:59.892Z,4.20
2022-12-05T22:28:28.064Z,4.20
2022-12-05T22:30:57.324Z,4.20
2022-12-05T22:33:26.442Z,4.20
2022-12-05T22:35:56.526Z,4.20
2022-12-05T22:38:24.587Z,4.20
2022-12-05T22:40:56.366Z,4.20
2022-12-05T22:43:26.420Z,4.20
2022-12-05T22:45:54.704Z,4.30
2022-12-05T22:48:23.773Z,4.30
2022-12-05T22:50:53.874Z,4.30
2022-12-05T22:53:23.182Z,4.30
2022-12-05T22:55:52.144Z,4.30
2022-12-05T22:58:20.555Z,4.30
2022-12-05T23:00:49.926Z,4.30
2022-12-05T23:03:18.115Z,4.30
2022-12-05T23:05:46.402Z,4.30
2022-12-05T23:08:14.824Z,4.30
2022-12-05T23:10:43.175Z,4.30
2022-12-05T23:13:11.288Z,4.30
2022-12-05T23:15:39.773Z,4.30
2022-12-05T23:18:09.351Z,4.30
2022-12-05T23:20:37.430Z,4.30
2022-12-05T23:23:05.532Z,4.30
2022-12-05T23:25:33.662Z,4.40
2022-12-05T23:28:01.795Z,4.30
2022-12-05T23:30:29.923Z,4.30
2022-12-05T23:32:58.046Z,4.30
2022-12-05T23:35:27.496Z,4.30
2022-12-05T23:37:55.619Z,4.20
2022-12-05T23:40:23.811Z,4.20
2022-12-05T23:42:51.957Z,4.20
2022-12-05T23:45:20.119Z,4.20
2022-12-05T23:47:48.239Z,4.30
2022-12-05T23:50:16.425Z,4.30
2022-12-05T23:52:45.930Z,4.30
2022-12-05T23:55:14.011Z,4.30
2022-12-05T23:57:42.105Z,4.30
